createdAt,value
2023-03-30T00:01:21.636Z,100699.88
2023-03-30T00:03:50.296Z,100702.34
2023-03-30T00:06:21.913Z,100696.84
2023-03-30T00:08:53.213Z,100701.16
2023-03-30T00:11:23.099Z,100691.53
2023-03-30T00:13:51.521Z,100691.34
2023-03-30T00:16:21.736Z,100690.34
2023-03-30T00:18:50.498Z,100683.19
2023-03-30T00:21:20.633Z,100678.72
2023-03-30T00:23:48.893Z,100670.72
2023-03-30T00:26:17.558Z,100672.56
2023-03-30T00:28:45.338Z,100650.66
2023-03-30T00:31:12.949Z,100647.19
2023-03-30T00:33:46.525Z,100644.53
2023-03-30T00:36:16.221Z,100636.56
2023-03-30T00:38:45.450Z,100642.69
2023-03-30T00:41:13.247Z,100637.38
2023-03-30T00:43:58.114Z,100631.25
2023-03-30T00:46:25.835Z,100629.56
2023-03-30T00:48:58.209Z,100640.22
2023-03-30T00:51:28.661Z,100634.06
2023-03-30T00:54:01.016Z,100641.03
2023-03-30T00:56:31.309Z,100623.44
2023-03-30T00:58:59.238Z,100617.28
2023-03-30T01:01:28.670Z,100608.31
2023-03-30T01:04:00.809Z,100603.00
2023-03-30T01:06:30.018Z,100606.66
2023-03-30T01:08:58.988Z,100602.16
2023-03-30T01:11:27.761Z,100596.03
2023-03-30T01:13:59.389Z,100592.56
2023-03-30T01:16:33.517Z,100590.72
2023-03-30T01:19:19.854Z,100576.63
2023-03-30T01:22:36.808Z,100572.31
2023-03-30T01:25:49.200Z,100566.16
2023-03-30T01:28:28.495Z,100553.91
2023-03-30T01:31:12.685Z,100546.75
2023-03-30T01:34:03.739Z,100542.06
2023-03-30T01:36:57.794Z,100537.97
2023-03-30T01:39:39.692Z,100531.63
2023-03-30T01:42:14.410Z,100524.84
2023-03-30T01:44:48.246Z,100513.22
2023-03-30T01:47:20.122Z,100511.56
2023-03-30T01:49:57.319Z,100503.59
2023-03-30T01:52:31.839Z,100499.47
2023-03-30T01:55:04.624Z,100505.03
2023-03-30T01:57:38.823Z,100502.22
2023-03-30T02:00:13.394Z,100502.84
2023-03-30T02:02:45.140Z,100499.34
2023-03-30T02:05:18.043Z,100485.69
2023-03-30T02:07:50.823Z,100482.84
2023-03-30T02:10:22.275Z,100465.25
2023-03-30T02:12:52.112Z,100458.94
2023-03-30T02:15:20.676Z,100461.22
2023-03-30T02:17:49.345Z,100447.72
2023-03-30T02:20:18.548Z,100442.63
2023-03-30T02:22:47.258Z,100444.13
2023-03-30T02:25:15.623Z,100447.41
2023-03-30T02:27:44.796Z,100441.06
2023-03-30T02:30:13.178Z,100436.38
2023-03-30T02:32:43.498Z,100430.06
2023-03-30T02:35:31.671Z,100428.84
2023-03-30T02:38:17.639Z,100423.91
2023-03-30T02:40:55.089Z,100408.97
2023-03-30T02:43:32.861Z,100396.50
2023-03-30T02:46:16.764Z,100397.13
2023-03-30T02:48:56.210Z,100382.59
2023-03-30T02:51:36.847Z,100379.56
2023-03-30T02:54:15.917Z,100369.72
2023-03-30T02:56:48.274Z,100378.50
2023-03-30T02:59:20.958Z,100373.03
2023-03-30T03:01:54.226Z,100373.63
2023-03-30T03:04:23.570Z,100357.50
2023-03-30T03:06:52.940Z,100339.69
2023-03-30T03:09:21.023Z,100322.13
2023-03-30T03:11:48.754Z,100315.97
2023-03-30T03:14:17.770Z,100334.59
2023-03-30T03:16:45.487Z,100333.19
2023-03-30T03:19:13.152Z,100326.00
2023-03-30T03:21:40.925Z,100312.72
2023-03-30T03:24:08.822Z,100303.28
2023-03-30T03:26:36.642Z,100289.81
2023-03-30T03:29:04.298Z,100277.34
2023-03-30T03:31:33.301Z,100268.72
2023-03-30T03:34:01.152Z,100267.09
2023-03-30T03:36:28.842Z,100273.22
2023-03-30T03:38:56.503Z,100267.91
2023-03-30T03:41:24.113Z,100269.56
2023-03-30T03:43:51.834Z,100260.56
2023-03-30T03:46:19.507Z,100245.44
2023-03-30T03:48:48.498Z,100244.41
2023-03-30T03:51:16.481Z,100242.56
2023-03-30T03:53:44.106Z,100238.91
2023-03-30T03:56:12.645Z,100240.53
2023-03-30T03:58:40.521Z,100231.72
2023-03-30T04:01:08.333Z,100230.94
2023-03-30T04:03:36.262Z,100229.88
2023-03-30T04:06:05.626Z,100233.38
2023-03-30T04:08:33.493Z,100228.06
2023-03-30T04:11:07.964Z,100226.66
2023-03-30T04:13:36.006Z,100222.34
2023-03-30T04:16:03.735Z,100211.09
2023-03-30T04:18:33.465Z,100205.56
2023-03-30T04:21:03.339Z,100203.72
2023-03-30T04:23:33.710Z,100196.56
2023-03-30T04:26:02.527Z,100195.34
2023-03-30T04:28:31.718Z,100189.22
2023-03-30T04:31:00.371Z,100185.13
2023-03-30T04:33:28.830Z,100189.59
2023-03-30T04:35:56.875Z,100183.47
2023-03-30T04:38:24.520Z,100177.13
2023-03-30T04:40:53.975Z,100174.69
2023-03-30T04:43:23.441Z,100173.66
2023-03-30T04:45:51.843Z,100163.66
2023-03-30T04:48:20.703Z,100165.69
2023-03-30T04:50:50.664Z,100153.22
2023-03-30T04:53:19.633Z,100146.88
2023-03-30T04:55:49.909Z,100134.59
2023-03-30T04:58:19.257Z,100138.91
2023-03-30T05:00:47.363Z,100145.66
2023-03-30T05:03:15.156Z,100130.53
2023-03-30T05:05:43.166Z,100134.19
2023-03-30T05:08:10.761Z,100132.13
2023-03-30T05:10:38.559Z,100129.47
2023-03-30T05:13:06.908Z,100131.13
2023-03-30T05:15:35.934Z,100129.47
2023-03-30T05:18:03.603Z,100130.94
2023-03-30T05:20:31.450Z,100122.97
2023-03-30T05:22:59.201Z,100114.78
2023-03-30T05:25:27.225Z,100112.13
2023-03-30T05:27:54.841Z,100114.38
2023-03-30T05:30:22.467Z,100112.94
2023-03-30T05:32:51.471Z,100107.41
2023-03-30T05:35:19.089Z,100101.28
2023-03-30T05:37:46.682Z,100101.06
2023-03-30T05:40:14.461Z,100090.44
2023-03-30T05:42:42.224Z,100092.91
2023-03-30T05:45:11.125Z,100091.03
2023-03-30T05:47:38.722Z,100090.44
2023-03-30T05:50:09.311Z,100097.19
2023-03-30T05:52:37.013Z,100093.13
2023-03-30T05:55:05.010Z,100094.34
2023-03-30T05:57:33.122Z,100087.59
2023-03-30T06:00:00.793Z,100081.06
2023-03-30T06:02:28.434Z,100083.53
2023-03-30T06:04:56.230Z,100079.41
2023-03-30T06:07:25.384Z,100069.81
2023-03-30T06:09:53.179Z,100076.34
2023-03-30T06:12:21.226Z,100078.81
2023-03-30T06:14:48.826Z,100081.47
2023-03-30T06:17:16.488Z,100076.97
2023-03-30T06:19:44.135Z,100071.03
2023-03-30T06:22:11.722Z,100068.16
2023-03-30T06:24:40.971Z,100066.72
2023-03-30T06:27:09.190Z,100070.00
2023-03-30T06:29:36.834Z,100073.28
2023-03-30T06:32:04.957Z,100076.53
2023-03-30T06:34:32.753Z,100081.69
2023-03-30T06:37:01.152Z,100078.59
2023-03-30T06:39:29.656Z,100067.31
2023-03-30T06:41:58.615Z,100069.56
2023-03-30T06:44:27.137Z,100063.00
2023-03-30T06:46:54.712Z,100055.84
2023-03-30T06:49:22.782Z,100047.63
2023-03-30T06:51:50.445Z,100050.94
2023-03-30T06:54:20.159Z,100060.13
2023-03-30T06:56:47.823Z,100055.19
2023-03-30T06:59:17.407Z,100057.25
2023-03-30T07:01:45.664Z,100062.34
2023-03-30T07:04:13.345Z,100064.16
2023-03-30T07:06:40.979Z,100064.16
2023-03-30T07:09:08.825Z,100055.56
2023-03-30T07:11:36.550Z,100045.28
2023-03-30T07:14:05.465Z,100052.03
2023-03-30T07:16:34.517Z,100048.94
2023-03-30T07:19:02.352Z,100049.94
2023-03-30T07:21:29.946Z,100057.72
2023-03-30T07:23:58.108Z,100054.84
2023-03-30T07:26:25.796Z,100048.91
2023-03-30T07:28:53.380Z,100043.75
2023-03-30T07:31:21.873Z,100034.94
2023-03-30T07:33:51.851Z,100035.72
2023-03-30T07:36:19.976Z,100027.28
2023-03-30T07:38:47.736Z,100029.81
2023-03-30T07:41:17.910Z,100019.06
2023-03-30T07:43:45.895Z,100025.53
2023-03-30T07:46:13.617Z,100022.34
2023-03-30T07:48:42.129Z,100030.47
2023-03-30T07:51:13.537Z,100031.06
2023-03-30T07:53:41.994Z,100038.03
2023-03-30T07:56:10.462Z,100036.13
2023-03-30T07:58:39.110Z,100030.28
2023-03-30T08:01:07.047Z,100030.66
2023-03-30T08:03:34.878Z,100024.44
2023-03-30T08:06:05.515Z,100014.72
2023-03-30T08:08:38.747Z,100014.09
2023-03-30T08:11:06.931Z,100014.47
2023-03-30T08:13:34.551Z,100017.16
2023-03-30T08:16:02.682Z,100017.16
2023-03-30T08:18:30.423Z,100017.59
2023-03-30T08:20:58.135Z,100017.84
2023-03-30T08:23:25.887Z,100016.88
2023-03-30T08:25:57.768Z,100022.66
2023-03-30T08:28:25.874Z,100017.25
2023-03-30T08:30:54.567Z,100023.63
2023-03-30T08:33:22.997Z,100017.19
2023-03-30T08:35:51.300Z,100016.53
2023-03-30T08:38:19.594Z,100014.69
2023-03-30T08:40:49.645Z,100020.78
2023-03-30T08:43:32.722Z,100020.19
2023-03-30T08:46:01.695Z,100016.72
2023-03-30T08:48:32.421Z,100021.00
2023-03-30T08:51:03.435Z,100017.94
2023-03-30T08:53:34.649Z,100018.31
2023-03-30T08:56:07.782Z,100026.72
2023-03-30T08:58:45.388Z,100022.56
2023-03-30T09:01:19.803Z,100025.16
2023-03-30T09:04:06.427Z,100021.84
2023-03-30T09:06:46.883Z,100026.34
2023-03-30T09:09:17.863Z,100019.75
2023-03-30T09:11:47.663Z,100025.91
2023-03-30T09:14:30.129Z,100013.75
2023-03-30T09:17:02.373Z,100019.66
2023-03-30T09:19:36.368Z,100009.44
2023-03-30T09:22:07.021Z,100009.81
2023-03-30T09:24:35.658Z,100012.97
2023-03-30T09:27:10.820Z,100006.50
2023-03-30T09:29:47.573Z,100010.94
2023-03-30T09:32:25.666Z,100012.06
2023-03-30T09:35:00.235Z,100022.63
2023-03-30T09:37:29.824Z,100010.88
2023-03-30T09:39:58.997Z,100019.84
2023-03-30T09:42:34.907Z,100019.50
2023-03-30T09:45:12.658Z,100023.06
2023-03-30T09:47:42.400Z,100015.50
2023-03-30T09:50:12.278Z,100010.63
2023-03-30T09:52:41.678Z,100006.34
2023-03-30T09:55:34.353Z,100012.25
2023-03-30T09:58:13.671Z,100008.50
2023-03-30T10:00:42.971Z,100017.25
2023-03-30T10:03:21.826Z,100018.63
2023-03-30T10:06:03.122Z,100004.88
2023-03-30T10:08:31.304Z,100009.31
2023-03-30T10:11:01.202Z,100011.72
2023-03-30T10:13:33.316Z,100005.44
2023-03-30T10:16:07.833Z,100011.91
2023-03-30T10:18:41.685Z,100016.31
2023-03-30T10:21:19.371Z,100012.66
2023-03-30T10:23:59.392Z,100016.25
2023-03-30T10:26:30.583Z,100014.66
2023-03-30T10:29:03.181Z,100007.78
2023-03-30T10:31:36.715Z,100016.91
2023-03-30T10:34:06.525Z,100011.22
2023-03-30T10:36:40.548Z,100011.25
2023-03-30T10:39:14.436Z,100013.44
2023-03-30T10:41:43.262Z,100014.09
2023-03-30T10:44:23.404Z,100020.38
2023-03-30T10:46:55.757Z,100020.84
2023-03-30T10:49:38.567Z,100021.88
2023-03-30T10:52:13.679Z,100013.19
2023-03-30T10:54:46.080Z,100020.34
2023-03-30T10:57:16.681Z,100016.59
2023-03-30T11:00:18.307Z,100015.13
2023-03-30T11:02:55.600Z,100005.34
2023-03-30T11:05:32.405Z,100016.91
2023-03-30T11:08:05.083Z,100014.59
2023-03-30T11:10:36.767Z,100016.81
2023-03-30T11:13:07.129Z,100022.31
2023-03-30T11:15:40.508Z,100025.63
2023-03-30T11:18:15.101Z,100022.81
2023-03-30T11:20:47.028Z,100023.25
2023-03-30T11:23:21.443Z,100024.88
2023-03-30T11:25:58.926Z,100029.44
2023-03-30T11:28:53.947Z,100031.78
2023-03-30T11:31:40.193Z,100032.00
2023-03-30T11:34:20.406Z,100027.22
2023-03-30T11:36:55.942Z,100024.69
2023-03-30T11:39:32.628Z,100027.59
2023-03-30T11:42:08.328Z,100024.81
2023-03-30T11:44:36.139Z,100023.63
2023-03-30T11:47:18.394Z,100027.38
2023-03-30T11:50:02.228Z,100023.50
2023-03-30T11:52:34.391Z,100040.44
2023-03-30T11:55:19.207Z,100034.31
2023-03-30T11:57:54.041Z,100027.50
2023-03-30T12:00:32.268Z,100051.59
2023-03-30T12:03:14.252Z,100049.03
2023-03-30T12:05:47.188Z,100055.19
2023-03-30T12:08:30.688Z,100059.47
2023-03-30T12:11:07.384Z,100051.88
2023-03-30T12:13:44.777Z,100059.13
2023-03-30T12:16:25.592Z,100054.03
2023-03-30T12:19:06.256Z,100052.06
2023-03-30T12:21:42.372Z,100055.41
2023-03-30T12:24:17.844Z,100053.53
2023-03-30T12:26:58.237Z,100056.31
2023-03-30T12:32:26.943Z,100056.34
2023-03-30T12:34:58.249Z,100063.91
2023-03-30T12:37:33.559Z,100056.38
2023-03-30T12:40:06.715Z,100063.50
2023-03-30T12:42:36.602Z,100066.00
2023-03-30T12:45:21.147Z,100067.94
2023-03-30T12:48:04.234Z,100091.19
2023-03-30T12:50:39.492Z,100071.31
2023-03-30T12:53:25.959Z,100082.84
2023-03-30T12:56:04.517Z,100070.44
2023-03-30T12:59:13.856Z,100075.72
2023-03-30T13:02:06.281Z,100074.59
2023-03-30T13:04:37.578Z,100081.91
2023-03-30T13:07:07.895Z,100075.22
2023-03-30T13:09:54.717Z,100068.16
2023-03-30T13:12:31.250Z,100072.59
2023-03-30T13:15:02.116Z,100079.94
2023-03-30T13:17:48.980Z,100088.84
2023-03-30T13:20:28.236Z,100101.41
2023-03-30T13:23:06.416Z,100073.25
2023-03-30T13:25:45.530Z,100095.00
2023-03-30T13:28:35.346Z,100101.50
2023-03-30T13:31:13.494Z,100084.63
2023-03-30T13:33:47.035Z,100077.81
2023-03-30T13:36:18.826Z,100084.81
2023-03-30T13:39:13.556Z,100083.38
2023-03-30T13:41:58.130Z,100088.00
2023-03-30T13:44:42.008Z,100073.91
2023-03-30T13:47:28.524Z,100075.56
2023-03-30T13:50:00.687Z,100076.84
2023-03-30T13:52:33.039Z,100074.13
2023-03-30T13:55:02.945Z,100077.06
2023-03-30T13:57:37.170Z,100076.09
2023-03-30T14:00:24.660Z,100083.75
2023-03-30T14:02:52.803Z,100075.28
2023-03-30T14:05:23.058Z,100072.19
2023-03-30T14:07:55.131Z,100072.59
2023-03-30T14:10:22.968Z,100080.00
2023-03-30T14:12:55.898Z,100078.84
2023-03-30T14:15:26.915Z,100076.53
2023-03-30T14:17:56.760Z,100075.06
2023-03-30T14:20:53.018Z,100073.53
2023-03-30T14:23:29.593Z,100065.47
2023-03-30T14:25:59.819Z,100073.25
2023-03-30T14:28:30.606Z,100075.34
2023-03-30T14:30:59.649Z,100083.66
2023-03-30T14:33:27.830Z,100083.94
2023-03-30T14:35:57.361Z,100087.03
2023-03-30T14:38:28.290Z,100079.91
2023-03-30T14:40:56.190Z,100084.59
2023-03-30T14:43:26.662Z,100070.81
2023-03-30T14:45:58.852Z,100074.47
2023-03-30T14:48:31.857Z,100075.28
2023-03-30T14:51:00.062Z,100063.97
2023-03-30T14:53:30.092Z,100067.09
2023-03-30T14:56:00.618Z,100076.53
2023-03-30T14:58:31.699Z,100086.47
2023-03-30T15:01:09.259Z,100079.81
2023-03-30T15:03:39.579Z,100085.84
2023-03-30T15:06:09.173Z,100089.53
2023-03-30T15:08:40.280Z,100094.06
2023-03-30T15:11:10.759Z,100091.66
2023-03-30T15:13:41.730Z,100099.06
2023-03-30T15:16:16.633Z,100097.00
2023-03-30T15:18:44.716Z,100098.03
2023-03-30T15:21:14.662Z,100097.06
2023-03-30T15:23:45.959Z,100099.97
2023-03-30T15:26:13.934Z,100106.81
2023-03-30T15:28:46.610Z,100101.25
2023-03-30T15:31:16.516Z,100096.56
2023-03-30T15:33:46.353Z,100096.19
2023-03-30T15:36:18.391Z,100093.53
2023-03-30T15:38:50.492Z,100088.81
2023-03-30T15:41:22.279Z,100089.50
2023-03-30T15:43:57.841Z,100093.81
2023-03-30T15:46:28.847Z,100106.75
2023-03-30T15:49:00.167Z,100096.09
2023-03-30T15:51:33.031Z,100093.25
2023-03-30T15:54:04.051Z,100104.31
2023-03-30T15:56:35.630Z,100101.00
2023-03-30T15:59:03.442Z,100095.69
2023-03-30T16:01:50.060Z,100093.00
2023-03-30T16:04:19.685Z,100087.25
2023-03-30T16:06:47.586Z,100085.00
2023-03-30T16:09:15.800Z,100090.75
2023-03-30T16:11:45.015Z,100087.50
2023-03-30T16:14:15.748Z,100083.59
2023-03-30T16:16:44.995Z,100088.94
2023-03-30T16:19:13.476Z,100093.06
2023-03-30T16:21:42.514Z,100095.31
2023-03-30T16:24:11.692Z,100096.56
2023-03-30T16:26:39.322Z,100082.81
2023-03-30T16:29:12.009Z,100090.16
2023-03-30T16:31:39.938Z,100093.25
2023-03-30T16:34:08.931Z,100088.16
2023-03-30T16:36:36.537Z,100086.50
2023-03-30T16:39:05.771Z,100089.56
2023-03-30T16:41:33.441Z,100088.97
2023-03-30T16:44:01.153Z,100083.66
2023-03-30T16:46:28.821Z,100090.41
2023-03-30T16:48:56.605Z,100093.91
2023-03-30T16:51:25.668Z,100089.63
2023-03-30T16:53:53.417Z,100087.97
2023-03-30T16:56:21.640Z,100092.69
2023-03-30T16:58:49.222Z,100082.22
2023-03-30T17:01:18.645Z,100092.88
2023-03-30T17:03:47.098Z,100091.25
2023-03-30T17:06:16.820Z,100086.53
2023-03-30T17:08:46.045Z,100083.66
2023-03-30T17:11:15.020Z,100099.66
2023-03-30T17:13:43.489Z,100096.78
2023-03-30T17:16:13.166Z,100105.59
2023-03-30T17:18:40.936Z,100084.72
2023-03-30T17:21:10.517Z,100101.47
2023-03-30T17:23:38.125Z,100104.13
2023-03-30T17:26:07.692Z,100092.69
2023-03-30T17:28:38.235Z,100097.59
2023-03-30T17:31:11.047Z,100096.78
2023-03-30T17:33:39.087Z,100097.59
2023-03-30T17:36:13.733Z,100100.66
2023-03-30T17:38:43.461Z,100098.81
2023-03-30T17:41:14.545Z,100105.16
2023-03-30T17:43:43.367Z,100096.56
2023-03-30T17:46:12.321Z,100097.16
2023-03-30T17:48:40.140Z,100091.47
2023-03-30T17:51:08.324Z,100092.47
2023-03-30T17:53:36.907Z,100106.63
2023-03-30T17:56:05.124Z,100107.63
2023-03-30T17:58:35.761Z,100105.78
2023-03-30T18:01:05.516Z,100105.78
2023-03-30T18:03:34.002Z,100105.59
2023-03-30T18:06:02.981Z,100101.28
2023-03-30T18:08:31.310Z,100105.78
2023-03-30T18:11:00.343Z,100104.38
2023-03-30T18:13:30.433Z,100109.09
2023-03-30T18:16:01.206Z,100108.47
2023-03-30T18:18:30.794Z,100104.78
2023-03-30T18:21:02.442Z,100110.53
2023-03-30T18:23:31.394Z,100109.50
2023-03-30T18:25:59.040Z,100121.16
2023-03-30T18:28:28.322Z,100116.47
2023-03-30T18:30:57.568Z,100124.66
2023-03-30T18:33:27.082Z,100116.66
2023-03-30T18:35:56.686Z,100123.41
2023-03-30T18:38:25.522Z,100121.16
2023-03-30T18:40:57.738Z,100119.34
2023-03-30T18:43:26.947Z,100122.41
2023-03-30T18:46:02.472Z,100122.41
2023-03-30T18:48:31.918Z,100123.00
2023-03-30T18:50:59.596Z,100131.41
2023-03-30T18:53:28.525Z,100124.88
2023-03-30T18:55:58.396Z,100135.72
2023-03-30T18:58:27.712Z,100131.41
2023-03-30T19:00:56.133Z,100133.47
2023-03-30T19:03:24.763Z,100128.34
2023-03-30T19:05:54.126Z,100125.88
2023-03-30T19:08:23.408Z,100130.38
2023-03-30T19:10:52.731Z,100126.53
2023-03-30T19:13:21.883Z,100133.69
2023-03-30T19:15:50.715Z,100130.19
2023-03-30T19:18:19.022Z,100133.06
2023-03-30T19:20:49.250Z,100142.91
2023-03-30T19:23:18.811Z,100136.34
2023-03-30T19:25:48.754Z,100144.13
2023-03-30T19:28:18.403Z,100148.63
2023-03-30T19:30:46.764Z,100148.63
2023-03-30T19:33:16.511Z,100146.38
2023-03-30T19:35:45.717Z,100152.72
2023-03-30T19:38:13.539Z,100146.56
2023-03-30T19:40:44.219Z,100146.97
2023-03-30T19:43:12.165Z,100144.28
2023-03-30T19:45:41.920Z,100155.75
2023-03-30T19:48:10.643Z,100157.41
2023-03-30T19:50:40.629Z,100158.25
2023-03-30T19:53:08.834Z,100157.59
2023-03-30T19:55:37.613Z,100150.84
2023-03-30T19:58:07.103Z,100150.25
2023-03-30T20:00:34.877Z,100146.75
2023-03-30T20:03:02.753Z,100154.97
2023-03-30T20:05:30.463Z,100152.28
2023-03-30T20:07:58.761Z,100147.75
2023-03-30T20:10:27.025Z,100155.34
2023-03-30T20:12:54.856Z,100143.88
2023-03-30T20:15:26.032Z,100160.03
2023-03-30T20:17:56.507Z,100156.56
2023-03-30T20:20:26.191Z,100148.16
2023-03-30T20:22:56.230Z,100152.69
2023-03-30T20:25:24.649Z,100149.22
2023-03-30T20:27:52.605Z,100154.97
2023-03-30T20:30:21.351Z,100148.16
2023-03-30T20:33:06.314Z,100152.69
2023-03-30T20:35:36.961Z,100148.19
2023-03-30T20:38:04.803Z,100148.97
2023-03-30T20:40:32.928Z,100155.13
2023-03-30T20:43:02.141Z,100159.00
2023-03-30T20:45:30.567Z,100156.56
2023-03-30T20:48:06.020Z,100157.97
2023-03-30T20:50:34.584Z,100157.56
2023-03-30T20:53:02.607Z,100159.22
2023-03-30T20:55:30.226Z,100153.47
2023-03-30T20:57:57.799Z,100154.06
2023-03-30T21:00:25.596Z,100159.41
2023-03-30T21:02:53.257Z,100152.25
2023-03-30T21:05:22.374Z,100154.28
2023-03-30T21:07:50.077Z,100157.13
2023-03-30T21:10:17.959Z,100155.50
2023-03-30T21:12:45.611Z,100157.75
2023-03-30T21:15:14.019Z,100154.47
2023-03-30T21:17:41.718Z,100158.97
2023-03-30T21:20:11.042Z,100150.78
2023-03-30T21:22:40.073Z,100149.34
2023-03-30T21:25:08.217Z,100143.03
2023-03-30T21:27:36.434Z,100151.00
2023-03-30T21:30:04.480Z,100151.41
2023-03-30T21:32:32.137Z,100149.75
2023-03-30T21:34:59.829Z,100155.06
2023-03-30T21:37:27.452Z,100148.09
2023-03-30T21:39:56.425Z,100150.75
2023-03-30T21:42:24.042Z,100150.97
2023-03-30T21:44:51.689Z,100138.50
2023-03-30T21:47:19.475Z,100143.19
2023-03-30T21:49:47.148Z,100129.88
2023-03-30T21:52:14.781Z,100143.19
2023-03-30T21:54:42.542Z,100132.53
2023-03-30T21:57:11.937Z,100130.50
2023-03-30T21:59:39.956Z,100133.16
2023-03-30T22:02:07.864Z,100130.06
2023-03-30T22:04:35.692Z,100131.72
2023-03-30T22:07:03.348Z,100124.56
2023-03-30T22:09:31.089Z,100118.44
2023-03-30T22:11:58.689Z,100122.09
2023-03-30T22:14:27.786Z,100118.84
2023-03-30T22:16:55.450Z,100119.03
2023-03-30T22:19:24.488Z,100125.59
2023-03-30T22:21:53.050Z,100119.44
2023-03-30T22:24:21.335Z,100124.56
2023-03-30T22:26:49.169Z,100118.84
2023-03-30T22:29:20.744Z,100118.00
2023-03-30T22:31:51.437Z,100122.50
2023-03-30T22:34:19.141Z,100117.38
2023-03-30T22:36:46.739Z,100113.28
2023-03-30T22:39:14.402Z,100116.16
2023-03-30T22:41:42.026Z,100106.38
2023-03-30T22:44:10.144Z,100120.06
2023-03-30T22:46:38.320Z,100122.31
2023-03-30T22:49:07.730Z,100112.69
2023-03-30T22:51:38.077Z,100121.50
2023-03-30T22:54:06.266Z,100115.34
2023-03-30T22:56:34.064Z,100100.41
2023-03-30T22:59:01.819Z,100102.44
2023-03-30T23:01:32.593Z,100104.28
2023-03-30T23:04:00.681Z,100101.63
2023-03-30T23:06:29.928Z,100099.78
2023-03-30T23:08:57.855Z,100106.13
2023-03-30T23:11:26.386Z,100097.75
2023-03-30T23:13:54.030Z,100105.13
2023-03-30T23:16:21.855Z,100100.22
2023-03-30T23:18:50.271Z,100091.41
2023-03-30T23:21:17.968Z,100086.94
2023-03-30T23:23:46.886Z,100087.53
2023-03-30T23:26:14.520Z,100085.69
2023-03-30T23:28:43.126Z,100092.44
2023-03-30T23:31:12.693Z,100091.22
2023-03-30T23:33:40.485Z,100083.47
2023-03-30T23:36:09.157Z,100077.94
2023-03-30T23:38:37.546Z,100080.59
2023-03-30T23:41:07.660Z,100085.72
2023-03-30T23:43:35.752Z,100076.31
2023-03-30T23:46:03.684Z,100085.31
2023-03-30T23:48:31.727Z,100072.63
2023-03-30T23:50:59.703Z,100074.47
2023-03-30T23:53:27.461Z,100076.09
2023-03-30T23:55:55.427Z,100075.50
2023-03-30T23:58:25.478Z,100071.22
